sensor_id;sensor_type;location;lat;lon;timestamp;pressure;altitude;pressure_sealevel;temperature;humidity
72226;BME280;60130;52.250;5.048;2023-03-04T00:00:00;391.4;;;6.8;74.2
72226;BME280;60130;52.250;5.048;2023-03-04T00:05:00;391.4;;;6.7;73.6
72226;BME280;60130;52.250;5.048;2023-03-04T00:10:00;391.4;;;6.8;73.5
72226;BME280;60130;52.250;5.048;2023-03-04T00:15:00;391.4;;;6.8;73.6
72226;BME280;60130;52.250;5.048;2023-03-04T00:20:00;391.4;;;6.8;73.7
72226;BME280;60130;52.250;5.048;2023-03-04T00:25:00;391.4;;;6.7;74.2
72226;BME280;60130;52.250;5.048;2023-03-04T00:30:00;391.4;;;6.8;74.3
72226;BME280;60130;52.250;5.048;2023-03-04T00:35:00;391.4;;;6.7;74.1
72226;BME280;60130;52.250;5.048;2023-03-04T00:40:00;391.3;;;6.7;73.1
72226;BME280;60130;52.250;5.048;2023-03-04T00:45:00;391.3;;;6.7;72.8
72226;BME280;60130;52.250;5.048;2023-03-04T00:50:00;391.4;;;6.7;72.7
72226;BME280;60130;52.250;5.048;2023-03-04T00:55:00;391.4;;;6.8;72.8
72226;BME280;60130;52.250;5.048;2023-03-04T01:00:00;391.4;;;6.8;73.5
72226;BME280;60130;52.250;5.048;2023-03-04T01:05:00;391.4;;;6.7;74.2
72226;BME280;60130;52.250;5.048;2023-03-04T01:10:00;391.3;;;6.7;74.6
72226;BME280;60130;52.250;5.048;2023-03-04T01:15:00;391.3;;;6.6;74.7
72226;BME280;60130;52.250;5.048;2023-03-04T01:20:00;391.3;;;6.6;73.3
72226;BME280;60130;52.250;5.048;2023-03-04T01:25:00;391.4;;;6.7;73.0
72226;BME280;60130;52.250;5.048;2023-03-04T01:30:00;391.4;;;6.7;73.0
72226;BME280;60130;52.250;5.048;2023-03-04T01:35:00;391.3;;;6.7;72.5
72226;BME280;60130;52.250;5.048;2023-03-04T01:40:00;391.2;;;6.6;72.5
72226;BME280;60130;52.250;5.048;2023-03-04T01:45:00;391.3;;;6.6;72.6
72226;BME280;60130;52.250;5.048;2023-03-04T01:50:03;unavailable;;;unavailable;unavailable
72226;BME280;60130;52.250;5.048;2023-03-04T01:55:00;391.3;;;6.7;72.8
72226;BME280;60130;52.250;5.048;2023-03-04T02:00:14;391.3;;;6.6;73.0
72226;BME280;60130;52.250;5.048;2023-03-04T02:05:00;391.2;;;6.5;72.9
72226;BME280;60130;52.250;5.048;2023-03-04T02:10:00;391.2;;;6.5;72.2
72226;BME280;60130;52.250;5.048;2023-03-04T02:15:00;unavailable;;;unavailable;unavailable
72226;BME280;60130;52.250;5.048;2023-03-04T02:20:09;unavailable;;;unavailable;unavailable
72226;BME280;60130;52.250;5.048;2023-03-04T02:25:02;unavailable;;;unavailable;unavailable
72226;BME280;60130;52.250;5.048;2023-03-04T02:30:00;391.2;;;6.6;72.2
72226;BME280;60130;52.250;5.048;2023-03-04T02:35:00;391.2;;;6.5;72.6
72226;BME280;60130;52.250;5.048;2023-03-04T02:40:00;391.3;;;6.6;72.7
72226;BME280;60130;52.250;5.048;2023-03-04T02:45:00;391.3;;;6.6;72.7
72226;BME280;60130;52.250;5.048;2023-03-04T02:50:00;391.4;;;6.7;72.7
72226;BME280;60130;52.250;5.048;2023-03-04T02:55:00;391.4;;;6.7;72.9
72226;BME280;60130;52.250;5.048;2023-03-04T03:00:00;391.3;;;6.7;73.0
72226;BME280;60130;52.250;5.048;2023-03-04T03:05:00;391.3;;;6.6;73.2
72226;BME280;60130;52.250;5.048;2023-03-04T03:10:00;391.3;;;6.6;73.4
72226;BME280;60130;52.250;5.048;2023-03-04T03:15:00;391.3;;;6.6;73.6
72226;BME280;60130;52.250;5.048;2023-03-04T03:20:00;391.2;;;6.5;73.8
72226;BME280;60130;52.250;5.048;2023-03-04T03:25:00;391.2;;;6.4;74.1
72226;BME280;60130;52.250;5.048;2023-03-04T03:30:00;391.2;;;6.4;74.1
72226;BME280;60130;52.250;5.048;2023-03-04T03:35:00;391.2;;;6.4;74.1
72226;BME280;60130;52.250;5.048;2023-03-04T03:40:00;unavailable;;;unavailable;unavailable
72226;BME280;60130;52.250;5.048;2023-03-04T03:45:00;391.2;;;6.5;74.8
72226;BME280;60130;52.250;5.048;2023-03-04T03:50:00;391.2;;;6.5;74.7
72226;BME280;60130;52.250;5.048;2023-03-04T03:55:00;391.2;;;6.5;75.2
72226;BME280;60130;52.250;5.048;2023-03-04T04:00:01;391.3;;;6.6;75.4
72226;BME280;60130;52.250;5.048;2023-03-04T04:05:00;391.3;;;6.6;75.6
72226;BME280;60130;52.250;5.048;2023-03-04T04:10:00;391.2;;;6.5;76.1
72226;BME280;60130;52.250;5.048;2023-03-04T04:15:00;391.2;;;6.5;76.8
72226;BME280;60130;52.250;5.048;2023-03-04T04:20:00;391.2;;;6.4;77.4
72226;BME280;60130;52.250;5.048;2023-03-04T04:25:00;391.2;;;6.5;77.2
72226;BME280;60130;52.250;5.048;2023-03-04T04:30:00;391.2;;;6.4;76.8
72226;BME280;60130;52.250;5.048;2023-03-04T04:35:00;391.2;;;6.4;76.4
72226;BME280;60130;52.250;5.048;2023-03-04T04:40:00;391.2;;;6.5;75.9
72226;BME280;60130;52.250;5.048;2023-03-04T04:45:00;391.2;;;6.5;75.8
72226;BME280;60130;52.250;5.048;2023-03-04T04:50:00;391.2;;;6.5;75.7
72226;BME280;60130;52.250;5.048;2023-03-04T04:55:00;391.3;;;6.7;75.3
72226;BME280;60130;52.250;5.048;2023-03-04T05:00:00;391.3;;;6.6;75.6
72226;BME280;60130;52.250;5.048;2023-03-04T05:05:00;391.2;;;6.5;76.1
72226;BME280;60130;52.250;5.048;2023-03-04T05:10:00;391.2;;;6.5;76.7
72226;BME280;60130;52.250;5.048;2023-03-04T05:15:00;391.2;;;6.4;77.4
72226;BME280;60130;52.250;5.048;2023-03-04T05:20:00;391.1;;;6.4;79.3
72226;BME280;60130;52.250;5.048;2023-03-04T05:25:00;391.0;;;6.3;81.1
72226;BME280;60130;52.250;5.048;2023-03-04T05:30:00;391.0;;;6.1;82.1
72226;BME280;60130;52.250;5.048;2023-03-04T05:35:00;391.0;;;6.2;82.4
72226;BME280;60130;52.250;5.048;2023-03-04T05:40:00;390.9;;;6.1;82.9
72226;BME280;60130;52.250;5.048;2023-03-04T05:45:00;391.0;;;6.1;82.7
72226;BME280;60130;52.250;5.048;2023-03-04T05:50:00;391.0;;;6.2;82.3
72226;BME280;60130;52.250;5.048;2023-03-04T05:55:00;390.9;;;6.1;82.3
72226;BME280;60130;52.250;5.048;2023-03-04T06:00:00;391.0;;;6.2;81.9
72226;BME280;60130;52.250;5.048;2023-03-04T06:05:00;391.0;;;6.1;81.8
72226;BME280;60130;52.250;5.048;2023-03-04T06:10:00;391.0;;;6.2;80.9
72226;BME280;60130;52.250;5.048;2023-03-04T06:15:00;391.0;;;6.2;80.5
72226;BME280;60130;52.250;5.048;2023-03-04T06:20:00;391.0;;;6.2;80.4
72226;BME280;60130;52.250;5.048;2023-03-04T06:25:00;390.9;;;6.1;80.0
72226;BME280;60130;52.250;5.048;2023-03-04T06:30:00;391.0;;;6.2;80.1
72226;BME280;60130;52.250;5.048;2023-03-04T06:35:00;391.0;;;6.2;80.0
72226;BME280;60130;52.250;5.048;2023-03-04T06:40:00;391.0;;;6.2;80.5
72226;BME280;60130;52.250;5.048;2023-03-04T06:45:00;391.0;;;6.3;80.6
72226;BME280;60130;52.250;5.048;2023-03-04T06:50:00;391.1;;;6.3;80.6
72226;BME280;60130;52.250;5.048;2023-03-04T06:55:00;391.0;;;6.3;82.3
72226;BME280;60130;52.250;5.048;2023-03-04T07:00:00;391.0;;;6.2;82.8
72226;BME280;60130;52.250;5.048;2023-03-04T07:05:00;391.1;;;6.3;82.8
72226;BME280;60130;52.250;5.048;2023-03-04T07:10:00;391.1;;;6.3;83.3
72226;BME280;60130;52.250;5.048;2023-03-04T07:15:00;391.0;;;6.2;83.4
72226;BME280;60130;52.250;5.048;2023-03-04T07:20:00;391.1;;;6.3;83.4
72226;BME280;60130;52.250;5.048;2023-03-04T07:25:00;391.2;;;6.5;82.6
72226;BME280;60130;52.250;5.048;2023-03-04T07:30:00;391.3;;;6.6;82.2
72226;BME280;60130;52.250;5.048;2023-03-04T07:35:00;391.4;;;6.8;81.3
72226;BME280;60130;52.250;5.048;2023-03-04T07:40:00;391.6;;;7.1;80.5
72226;BME280;60130;52.250;5.048;2023-03-04T07:45:00;391.6;;;7.0;79.8
72226;BME280;60130;52.250;5.048;2023-03-04T07:50:00;391.7;;;7.2;79.8
72226;BME280;60130;52.250;5.048;2023-03-04T07:55:00;391.7;;;7.2;79.6
72226;BME280;60130;52.250;5.048;2023-03-04T08:00:00;392.0;;;7.7;79.1
72226;BME280;60130;52.250;5.048;2023-03-04T08:05:00;392.0;;;7.8;79.1
72226;BME280;60130;52.250;5.048;2023-03-04T08:10:00;392.0;;;7.8;79.1
72226;BME280;60130;52.250;5.048;2023-03-04T08:15:00;unavailable;;;unavailable;unavailable
72226;BME280;60130;52.250;5.048;2023-03-04T08:20:00;unavailable;;;unavailable;unavailable
72226;BME280;60130;52.250;5.048;2023-03-04T08:25:00;392.2;;;7.9;78.8
72226;BME280;60130;52.250;5.048;2023-03-04T08:30:00;392.2;;;7.9;78.6
72226;BME280;60130;52.250;5.048;2023-03-04T08:35:00;392.3;;;8.0;78.5
72226;BME280;60130;52.250;5.048;2023-03-04T08:40:00;392.2;;;8.0;78.4
72226;BME280;60130;52.250;5.048;2023-03-04T08:45:00;392.2;;;8.0;79.0
72226;BME280;60130;52.250;5.048;2023-03-04T08:50:00;392.2;;;7.9;79.6
72226;BME280;60130;52.250;5.048;2023-03-04T08:55:00;392.3;;;8.1;78.9
72226;BME280;60130;52.250;5.048;2023-03-04T09:00:00;392.4;;;8.2;78.9
72226;BME280;60130;52.250;5.048;2023-03-04T09:05:00;392.6;;;8.6;78.3
72226;BME280;60130;52.250;5.048;2023-03-04T09:10:00;392.8;;;8.8;77.4
72226;BME280;60130;52.250;5.048;2023-03-04T09:15:00;392.9;;;8.9;77.0
72226;BME280;60130;52.250;5.048;2023-03-04T09:20:00;392.9;;;9.0;76.9
72226;BME280;60130;52.250;5.048;2023-03-04T09:25:00;392.7;;;8.6;78.5
72226;BME280;60130;52.250;5.048;2023-03-04T09:30:00;392.5;;;8.3;80.4
72226;BME280;60130;52.250;5.048;2023-03-04T09:35:00;392.8;;;8.8;80.1
72226;BME280;60130;52.250;5.048;2023-03-04T09:40:00;393.0;;;9.1;78.7
72226;BME280;60130;52.250;5.048;2023-03-04T09:45:01;unavailable;;;unavailable;unavailable
72226;BME280;60130;52.250;5.048;2023-03-04T09:50:03;unavailable;;;unavailable;unavailable
72226;BME280;60130;52.250;5.048;2023-03-04T09:55:05;393.2;;;9.3;76.4
72226;BME280;60130;52.250;5.048;2023-03-04T10:00:05;393.2;;;9.4;76.1
72226;BME280;60130;52.250;5.048;2023-03-04T10:05:01;393.2;;;9.4;76.2
72226;BME280;60130;52.250;5.048;2023-03-04T10:10:02;393.4;;;9.7;75.3
72226;BME280;60130;52.250;5.048;2023-03-04T10:15:04;393.4;;;9.6;74.1
72226;BME280;60130;52.250;5.048;2023-03-04T10:20:03;393.2;;;9.3;75.6
72226;BME280;60130;52.250;5.048;2023-03-04T10:25:12;392.9;;;8.9;79.6
72226;BME280;60130;52.250;5.048;2023-03-04T10:30:00;393.0;;;9.1;80.7
72226;BME280;60130;52.250;5.048;2023-03-04T10:35:00;393.0;;;9.1;80.2
72226;BME280;60130;52.250;5.048;2023-03-04T10:40:00;393.2;;;9.4;79.6
72226;BME280;60130;52.250;5.048;2023-03-04T10:45:00;393.3;;;9.5;77.5
72226;BME280;60130;52.250;5.048;2023-03-04T10:50:02;393.6;;;10.0;76.5
72226;BME280;60130;52.250;5.048;2023-03-04T10:55:03;393.7;;;10.1;74.3
72226;BME280;60130;52.250;5.048;2023-03-04T11:00:22;393.2;;;9.4;78.0
72226;BME280;60130;52.250;5.048;2023-03-04T11:05:15;392.9;;;8.9;81.0
72226;BME280;60130;52.250;5.048;2023-03-04T11:10:07;392.7;;;8.7;82.6
72226;BME280;60130;52.250;5.048;2023-03-04T11:15:01;392.6;;;8.5;83.9
72226;BME280;60130;52.250;5.048;2023-03-04T11:20:06;392.5;;;8.5;85.2
72226;BME280;60130;52.250;5.048;2023-03-04T11:25:06;392.5;;;8.4;85.7
72226;BME280;60130;52.250;5.048;2023-03-04T11:30:14;392.7;;;8.7;85.5
72226;BME280;60130;52.250;5.048;2023-03-04T11:35:05;393.0;;;9.2;84.2
72226;BME280;60130;52.250;5.048;2023-03-04T11:40:02;393.2;;;9.3;83.5
72226;BME280;60130;52.250;5.048;2023-03-04T11:45:00;393.0;;;9.0;83.4
72226;BME280;60130;52.250;5.048;2023-03-04T11:50:16;392.5;;;8.4;84.8
72226;BME280;60130;52.250;5.048;2023-03-04T11:55:10;392.4;;;8.2;85.6
72226;BME280;60130;52.250;5.048;2023-03-04T12:00:07;392.5;;;8.4;86.6
72226;BME280;60130;52.250;5.048;2023-03-04T12:10:05;392.5;;;8.4;83.1
72226;BME280;60130;52.250;5.048;2023-03-04T12:15:07;392.5;;;8.4;81.4
72226;BME280;60130;52.250;5.048;2023-03-04T12:20:08;392.5;;;8.4;80.2
72226;BME280;60130;52.250;5.048;2023-03-04T12:25:12;392.7;;;8.6;79.6
72226;BME280;60130;52.250;5.048;2023-03-04T12:30:02;392.8;;;8.7;78.8
72226;BME280;60130;52.250;5.048;2023-03-04T12:35:18;393.0;;;9.1;76.8
72226;BME280;60130;52.250;5.048;2023-03-04T12:40:15;393.2;;;9.3;75.7
72226;BME280;60130;52.250;5.048;2023-03-04T12:45:07;392.9;;;8.9;75.6
72226;BME280;60130;52.250;5.048;2023-03-04T12:50:19;392.7;;;8.6;77.3
72226;BME280;60130;52.250;5.048;2023-03-04T12:55:03;392.5;;;8.3;78.6
72226;BME280;60130;52.250;5.048;2023-03-04T13:00:12;392.7;;;8.6;79.5
72226;BME280;60130;52.250;5.048;2023-03-04T13:05:07;392.8;;;8.8;77.5
72226;BME280;60130;52.250;5.048;2023-03-04T13:10:05;392.8;;;8.8;75.6
72226;BME280;60130;52.250;5.048;2023-03-04T13:15:16;392.9;;;9.0;75.1
72226;BME280;60130;52.250;5.048;2023-03-04T13:20:12;393.0;;;9.1;72.1
72226;BME280;60130;52.250;5.048;2023-03-04T13:30:00;unavailable;;;unavailable;unavailable
72226;BME280;60130;52.250;5.048;2023-03-04T13:35:00;392.9;;;9.0;71.7
72226;BME280;60130;52.250;5.048;2023-03-04T13:45:00;392.8;;;8.8;71.9
72226;BME280;60130;52.250;5.048;2023-03-04T13:50:18;392.9;;;9.0;73.6
72226;BME280;60130;52.250;5.048;2023-03-04T14:00:00;392.9;;;9.0;73.7
72226;BME280;60130;52.250;5.048;2023-03-04T14:05:00;393.0;;;9.0;73.3
72226;BME280;60130;52.250;5.048;2023-03-04T14:10:03;392.9;;;9.0;73.4
72226;BME280;60130;52.250;5.048;2023-03-04T14:15:02;392.8;;;8.8;72.9
72226;BME280;60130;52.250;5.048;2023-03-04T14:20:00;392.7;;;8.7;72.0
72226;BME280;60130;52.250;5.048;2023-03-04T14:25:05;392.5;;;8.4;74.2
72226;BME280;60130;52.250;5.048;2023-03-04T14:30:02;392.5;;;8.3;75.7
72226;BME280;60130;52.250;5.048;2023-03-04T14:35:03;392.1;;;7.8;77.8
72226;BME280;60130;52.250;5.048;2023-03-04T14:40:01;392.1;;;7.8;78.7
72226;BME280;60130;52.250;5.048;2023-03-04T14:45:00;392.0;;;7.7;78.1
72226;BME280;60130;52.250;5.048;2023-03-04T14:50:02;392.1;;;7.7;77.6
72226;BME280;60130;52.250;5.048;2023-03-04T14:55:14;392.2;;;8.0;75.8
72226;BME280;60130;52.250;5.048;2023-03-04T15:05:07;392.4;;;8.3;73.8
72226;BME280;60130;52.250;5.048;2023-03-04T15:10:02;392.5;;;8.3;73.6
72226;BME280;60130;52.250;5.048;2023-03-04T15:15:01;392.5;;;8.3;73.1
72226;BME280;60130;52.250;5.048;2023-03-04T15:25:00;392.4;;;8.2;73.5
72226;BME280;60130;52.250;5.048;2023-03-04T15:30:00;392.4;;;8.2;72.6
72226;BME280;60130;52.250;5.048;2023-03-04T15:35:00;392.3;;;8.1;73.2
72226;BME280;60130;52.250;5.048;2023-03-04T15:40:00;392.4;;;8.2;72.9
72226;BME280;60130;52.250;5.048;2023-03-04T15:45:00;392.4;;;8.2;72.6
72226;BME280;60130;52.250;5.048;2023-03-04T15:50:00;392.5;;;8.3;72.1
72226;BME280;60130;52.250;5.048;2023-03-04T15:55:00;392.5;;;8.3;72.2
72226;BME280;60130;52.250;5.048;2023-03-04T16:00:00;392.4;;;8.2;71.8
72226;BME280;60130;52.250;5.048;2023-03-04T16:05:00;392.3;;;8.1;71.6
72226;BME280;60130;52.250;5.048;2023-03-04T16:10:04;392.2;;;8.0;69.5
72226;BME280;60130;52.250;5.048;2023-03-04T16:15:00;392.2;;;8.0;69.7
72226;BME280;60130;52.250;5.048;2023-03-04T16:20:00;392.2;;;7.9;69.2
72226;BME280;60130;52.250;5.048;2023-03-04T16:25:00;392.2;;;8.0;69.1
72226;BME280;60130;52.250;5.048;2023-03-04T16:30:00;392.3;;;8.0;69.3
72226;BME280;60130;52.250;5.048;2023-03-04T16:35:00;392.2;;;8.0;69.3
72226;BME280;60130;52.250;5.048;2023-03-04T16:40:00;392.2;;;7.9;69.8
72226;BME280;60130;52.250;5.048;2023-03-04T16:45:00;392.1;;;7.8;70.1
72226;BME280;60130;52.250;5.048;2023-03-04T16:50:00;392.0;;;7.7;70.8
72226;BME280;60130;52.250;5.048;2023-03-04T16:55:00;392.0;;;7.6;72.0
72226;BME280;60130;52.250;5.048;2023-03-04T17:00:00;391.9;;;7.5;72.8
72226;BME280;60130;52.250;5.048;2023-03-04T17:05:00;391.9;;;7.5;71.8
72226;BME280;60130;52.250;5.048;2023-03-04T17:10:00;391.8;;;7.4;72.1
72226;BME280;60130;52.250;5.048;2023-03-04T17:15:00;391.8;;;7.4;72.3
72226;BME280;60130;52.250;5.048;2023-03-04T17:20:00;391.8;;;7.4;72.3
72226;BME280;60130;52.250;5.048;2023-03-04T17:25:00;391.8;;;7.4;72.3
72226;BME280;60130;52.250;5.048;2023-03-04T17:30:01;unavailable;;;unavailable;unavailable
72226;BME280;60130;52.250;5.048;2023-03-04T17:35:00;391.7;;;7.3;71.6
72226;BME280;60130;52.250;5.048;2023-03-04T17:40:00;391.7;;;7.3;71.9
72226;BME280;60130;52.250;5.048;2023-03-04T17:45:00;391.7;;;7.2;69.8
72226;BME280;60130;52.250;5.048;2023-03-04T17:50:00;391.7;;;7.1;68.1
72226;BME280;60130;52.250;5.048;2023-03-04T17:55:00;391.7;;;7.2;68.2
72226;BME280;60130;52.250;5.048;2023-03-04T18:00:00;391.7;;;7.2;67.3
72226;BME280;60130;52.250;5.048;2023-03-04T18:05:01;391.7;;;7.2;72.0
72226;BME280;60130;52.250;5.048;2023-03-04T18:10:00;391.7;;;7.2;72.6
72226;BME280;60130;52.250;5.048;2023-03-04T18:15:00;391.6;;;7.1;74.0
72226;BME280;60130;52.250;5.048;2023-03-04T18:20:00;unavailable;;;unavailable;unavailable
72226;BME280;60130;52.250;5.048;2023-03-04T18:25:00;391.5;;;7.0;73.7
72226;BME280;60130;52.250;5.048;2023-03-04T18:30:00;391.5;;;6.9;73.7
72226;BME280;60130;52.250;5.048;2023-03-04T18:35:00;391.5;;;6.9;73.5
72226;BME280;60130;52.250;5.048;2023-03-04T18:40:00;391.5;;;6.8;73.7
72226;BME280;60130;52.250;5.048;2023-03-04T18:45:00;391.4;;;6.8;73.9
72226;BME280;60130;52.250;5.048;2023-03-04T18:50:00;391.4;;;6.7;74.4
72226;BME280;60130;52.250;5.048;2023-03-04T18:55:00;391.3;;;6.6;74.9
72226;BME280;60130;52.250;5.048;2023-03-04T19:00:02;391.1;;;6.4;75.7
72226;BME280;60130;52.250;5.048;2023-03-04T19:05:02;391.2;;;6.5;75.7
72226;BME280;60130;52.250;5.048;2023-03-04T19:10:00;391.1;;;6.4;76.1
72226;BME280;60130;52.250;5.048;2023-03-04T19:15:00;391.1;;;6.4;76.1
72226;BME280;60130;52.250;5.048;2023-03-04T19:20:00;391.0;;;6.3;76.4
72226;BME280;60130;52.250;5.048;2023-03-04T19:25:00;391.1;;;6.3;76.3
72226;BME280;60130;52.250;5.048;2023-03-04T19:30:00;390.9;;;6.1;76.2
72226;BME280;60130;52.250;5.048;2023-03-04T19:35:00;390.9;;;6.1;76.2
72226;BME280;60130;52.250;5.048;2023-03-04T19:40:00;390.7;;;5.7;77.1
72226;BME280;60130;52.250;5.048;2023-03-04T19:45:00;390.7;;;5.7;77.8
72226;BME280;60130;52.250;5.048;2023-03-04T19:50:00;390.6;;;5.7;78.3
72226;BME280;60130;52.250;5.048;2023-03-04T19:55:00;390.7;;;5.8;78.4
72226;BME280;60130;52.250;5.048;2023-03-04T20:00:00;390.7;;;5.8;78.4
72226;BME280;60130;52.250;5.048;2023-03-04T20:05:00;390.8;;;5.9;78.4
72226;BME280;60130;52.250;5.048;2023-03-04T20:10:00;390.7;;;5.8;78.6
72226;BME280;60130;52.250;5.048;2023-03-04T20:15:00;390.7;;;5.8;78.6
72226;BME280;60130;52.250;5.048;2023-03-04T20:20:00;390.7;;;5.8;78.5
72226;BME280;60130;52.250;5.048;2023-03-04T20:25:00;390.7;;;5.7;79.2
72226;BME280;60130;52.250;5.048;2023-03-04T20:30:00;390.6;;;5.6;78.6
72226;BME280;60130;52.250;5.048;2023-03-04T20:35:00;390.7;;;5.7;78.2
72226;BME280;60130;52.250;5.048;2023-03-04T20:40:00;390.7;;;5.7;78.0
72226;BME280;60130;52.250;5.048;2023-03-04T20:45:00;390.6;;;5.7;78.1
72226;BME280;60130;52.250;5.048;2023-03-04T20:50:00;390.6;;;5.6;78.4
72226;BME280;60130;52.250;5.048;2023-03-04T20:55:00;390.6;;;5.6;78.5
72226;BME280;60130;52.250;5.048;2023-03-04T21:00:00;390.6;;;5.6;79.0
72226;BME280;60130;52.250;5.048;2023-03-04T21:05:00;390.6;;;5.7;78.8
72226;BME280;60130;52.250;5.048;2023-03-04T21:10:00;390.5;;;5.5;78.9
72226;BME280;60130;52.250;5.048;2023-03-04T21:15:00;390.5;;;5.5;78.8
72226;BME280;60130;52.250;5.048;2023-03-04T21:20:00;390.4;;;5.3;78.6
72226;BME280;60130;52.250;5.048;2023-03-04T21:25:00;390.3;;;5.2;78.9
72226;BME280;60130;52.250;5.048;2023-03-04T21:30:00;390.3;;;5.1;78.8
72226;BME280;60130;52.250;5.048;2023-03-04T21:35:00;390.2;;;5.0;78.7
72226;BME280;60130;52.250;5.048;2023-03-04T21:40:00;390.1;;;4.8;79.5
72226;BME280;60130;52.250;5.048;2023-03-04T21:45:00;390.0;;;4.8;80.1
72226;BME280;60130;52.250;5.048;2023-03-04T21:50:00;390.0;;;4.8;80.0
72226;BME280;60130;52.250;5.048;2023-03-04T21:55:00;390.0;;;4.7;80.0
72226;BME280;60130;52.250;5.048;2023-03-04T22:00:00;390.0;;;4.7;80.2
72226;BME280;60130;52.250;5.048;2023-03-04T22:05:00;389.9;;;4.5;80.4
72226;BME280;60130;52.250;5.048;2023-03-04T22:10:00;389.9;;;4.5;80.8
72226;BME280;60130;52.250;5.048;2023-03-04T22:15:00;389.9;;;4.6;81.2
72226;BME280;60130;52.250;5.048;2023-03-04T22:20:00;390.0;;;4.7;81.2
72226;BME280;60130;52.250;5.048;2023-03-04T22:25:00;390.0;;;4.8;81.1
72226;BME280;60130;52.250;5.048;2023-03-04T22:30:00;390.0;;;4.8;80.5
72226;BME280;60130;52.250;5.048;2023-03-04T22:35:00;390.0;;;4.7;81.1
72226;BME280;60130;52.250;5.048;2023-03-04T22:40:00;390.2;;;5.0;80.7
72226;BME280;60130;52.250;5.048;2023-03-04T22:45:00;390.3;;;5.2;80.1
72226;BME280;60130;52.250;5.048;2023-03-04T22:50:00;390.2;;;5.1;80.3
72226;BME280;60130;52.250;5.048;2023-03-04T22:55:00;390.2;;;5.0;80.5
72226;BME280;60130;52.250;5.048;2023-03-04T23:00:00;390.1;;;4.9;81.1
72226;BME280;60130;52.250;5.048;2023-03-04T23:05:00;390.1;;;4.8;81.2
72226;BME280;60130;52.250;5.048;2023-03-04T23:10:00;390.1;;;4.8;81.2
72226;BME280;60130;52.250;5.048;2023-03-04T23:15:00;389.9;;;4.6;82.0
72226;BME280;60130;52.250;5.048;2023-03-04T23:20:00;389.8;;;4.5;82.8
72226;BME280;60130;52.250;5.048;2023-03-04T23:25:00;389.7;;;4.3;83.3
72226;BME280;60130;52.250;5.048;2023-03-04T23:30:00;389.7;;;4.4;83.5
72226;BME280;60130;52.250;5.048;2023-03-04T23:35:00;389.8;;;4.4;83.2
72226;BME280;60130;52.250;5.048;2023-03-04T23:40:00;389.7;;;4.4;83.5
72226;BME280;60130;52.250;5.048;2023-03-04T23:45:00;389.6;;;4.1;84.5
72226;BME280;60130;52.250;5.048;2023-03-04T23:50:00;unavailable;;;unavailable;unavailable
72226;BME280;60130;52.250;5.048;2023-03-04T23:55:00;389.6;;;4.2;84.3
